Flight Track Log - Related Links

Times and Time Zones

All times are in EDT time to prevent confusion due to time zone crossing. See the N9706B flight status page for this flight to view local times or setup timezone preferences in your user account.

Time Position Orientation Groundspeed Altitude Reporting Facility
EDT Latitude Longitude Course Direction KTS MPH feet Rate Location/Type
Sat 10:33:16 AM 39.7439 -83.1114 172° South 117 135 3,600  Level Indianapolis Center
Sat 10:34:41 AM 39.6964 -83.1031 172° South 124 143 3,600  Level Indianapolis Center
Sat 10:35:46 AM 39.6600 -83.0986 175° South 120 138 3,600 -48 Level Indianapolis Center
Sat 10:36:47 AM 39.6247 -83.1014 183° South 123 142 3,500 -49 Descending Indianapolis Center
Sat 10:37:49 AM 39.5908 -83.0975 175° South 122 140 3,500  Level Indianapolis Center
Sat 10:38:51 AM 39.5564 -83.0878 168° South 124 143 3,500 49 Level Indianapolis Center
Sat 10:39:52 AM 39.5233 -83.0747 163° South 124 143 3,600 49 Climbing Indianapolis Center
Sat 10:40:54 AM 39.4903 -83.0653 168° South 121 139 3,600  Level Indianapolis Center
Sat 10:41:56 AM 39.4564 -83.0572 170° South 122 140 3,600  Level Indianapolis Center
Sat 10:42:57 AM 39.4183 -83.0497 171° South 122 140 3,600 -49 Level Indianapolis Center
Sat 10:43:59 AM 39.3864 -83.0472 177° South 124 143 3,500 -49 Descending Indianapolis Center
Sat 10:45:00 AM 39.3511 -83.0461 179° South 125 144 3,500  Level Indianapolis Center
Sat 10:46:02 AM 39.3164 -83.0411 174° South 125 144 3,500  Level Indianapolis Center
Sat 10:47:04 AM 39.2775 -83.0300 168° South 123 142 3,500 -49 Level Indianapolis Center
Sat 10:48:05 AM 39.2428 -83.0178 165° South 125 144 3,400  Descending Indianapolis Center
Sat 10:49:07 AM 39.2097 -83.0044 163° South 124 143 3,500 48 Climbing Indianapolis Center
Sat 10:50:09 AM 39.1758 -82.9978 171° South 123 142 3,500 -49 Level Indianapolis Center
Sat 10:51:10 AM 39.1422 -82.9919 172° South 126 145 3,400 -98 Descending Indianapolis Center
Sat 10:52:12 AM 39.1069 -82.9856 172° South 128 147 3,300  Descending Indianapolis Center
Sat 10:53:14 AM 39.0681 -82.9775 171° South 120 138 3,400 97 Climbing Indianapolis Center
Sat 10:54:16 AM 39.0350 -82.9675 167° South 120 138 3,500 49 Climbing Indianapolis Center
Sat 10:55:17 AM 39.0025 -82.9567 165° South 120 138 3,500 -98 Level Indianapolis Center
Sat 10:56:19 AM 38.9711 -82.9336 150° Southeast 127 146 3,300 -194 Descending Indianapolis Center

Login

Don't have an account? Register now (free) for customized features, flight alerts, and more!